createdAt,value
2023-05-31T00:00:48.997Z,9.00
2023-05-31T00:03:06.013Z,10.60
2023-05-31T00:05:24.411Z,8.60
2023-05-31T00:07:41.492Z,8.18
2023-05-31T00:09:58.442Z,8.13
2023-05-31T00:12:15.422Z,6.88
2023-05-31T00:14:32.352Z,11.65
2023-05-31T00:17:27.029Z,11.48
2023-05-31T00:19:30.504Z,9.35
2023-05-31T00:21:47.546Z,9.25
2023-05-31T00:24:04.861Z,9.63
2023-05-31T00:26:21.785Z,8.65
2023-05-31T00:28:38.775Z,9.60
2023-05-31T00:30:56.838Z,10.10
2023-05-31T00:33:13.813Z,8.80
2023-05-31T00:35:33.083Z,10.88
2023-05-31T00:37:49.997Z,9.30
2023-05-31T00:40:07.323Z,11.10
2023-05-31T00:42:24.323Z,7.97
2023-05-31T00:44:41.266Z,10.15
2023-05-31T00:46:58.155Z,11.15
2023-05-31T00:49:15.136Z,9.20
2023-05-31T00:51:32.568Z,6.18
2023-05-31T00:53:49.510Z,9.23
2023-05-31T00:56:06.401Z,6.85
2023-05-31T00:58:23.347Z,8.85
2023-05-31T01:00:40.240Z,9.20
2023-05-31T01:02:57.186Z,11.23
2023-05-31T01:05:14.656Z,8.43
2023-05-31T01:07:31.632Z,8.48
2023-05-31T01:09:48.544Z,7.03
2023-05-31T01:12:05.491Z,11.15
2023-05-31T01:14:23.429Z,13.23
2023-05-31T01:16:40.481Z,9.57
2023-05-31T01:18:57.578Z,9.98
2023-05-31T01:21:14.477Z,9.35
2023-05-31T01:23:31.409Z,7.38
2023-05-31T01:25:50.514Z,10.25
2023-05-31T01:28:07.465Z,7.93
2023-05-31T01:30:24.621Z,10.30
2023-05-31T01:32:41.671Z,8.25
2023-05-31T01:34:59.688Z,13.80
2023-05-31T01:37:16.620Z,10.82
2023-05-31T01:39:33.525Z,7.20
2023-05-31T01:41:50.465Z,8.38
2023-05-31T01:44:07.441Z,9.07
2023-05-31T01:46:25.092Z,9.60
2023-05-31T01:48:42.326Z,8.75
2023-05-31T01:50:59.364Z,10.75
2023-05-31T01:53:16.452Z,8.02
2023-05-31T01:55:33.453Z,7.95
2023-05-31T01:57:51.862Z,11.20
2023-05-31T02:00:08.842Z,8.57
2023-05-31T02:02:26.485Z,6.07
2023-05-31T02:04:43.662Z,11.70
2023-05-31T02:07:04.358Z,8.48
2023-05-31T02:09:23.323Z,8.63
2023-05-31T02:11:40.280Z,9.05
2023-05-31T02:13:57.449Z,9.00
2023-05-31T02:16:15.420Z,9.65
2023-05-31T02:18:32.324Z,8.32
2023-05-31T02:20:49.400Z,10.55
2023-05-31T02:23:13.599Z,6.13
2023-05-31T02:25:30.519Z,7.90
2023-05-31T02:27:47.666Z,7.53
2023-05-31T02:30:07.496Z,6.78
2023-05-31T02:32:26.647Z,9.73
2023-05-31T02:34:43.614Z,8.80
2023-05-31T02:37:00.987Z,5.63
2023-05-31T02:39:17.944Z,9.05
2023-05-31T02:41:34.878Z,6.30
2023-05-31T02:43:52.322Z,7.07
2023-05-31T02:46:09.293Z,11.10
2023-05-31T02:48:26.344Z,8.48
2023-05-31T02:50:43.270Z,8.45
2023-05-31T02:53:00.254Z,7.50
2023-05-31T02:55:17.214Z,6.93
2023-05-31T02:57:38.250Z,9.50
2023-05-31T02:59:57.227Z,8.20
2023-05-31T03:02:14.744Z,8.13
2023-05-31T03:04:34.174Z,7.35
2023-05-31T03:09:22.005Z,11.48
2023-05-31T03:11:39.056Z,9.65
2023-05-31T03:13:56.258Z,8.77
2023-05-31T03:16:13.432Z,9.00
2023-05-31T03:18:30.761Z,8.30
2023-05-31T03:20:48.054Z,9.05
2023-05-31T03:23:06.180Z,6.75
2023-05-31T03:25:23.262Z,10.50
2023-05-31T03:27:40.316Z,8.02
2023-05-31T03:29:58.387Z,8.80
2023-05-31T03:32:18.018Z,7.82
2023-05-31T03:34:35.067Z,9.98
2023-05-31T03:36:53.092Z,8.60
2023-05-31T03:39:10.149Z,10.68
2023-05-31T03:41:28.171Z,9.18
2023-05-31T03:43:45.198Z,10.68
2023-05-31T03:46:02.352Z,10.15
2023-05-31T03:48:19.833Z,9.80
2023-05-31T03:50:36.799Z,7.47
2023-05-31T03:52:53.827Z,10.18
2023-05-31T03:55:10.798Z,9.35
2023-05-31T03:57:28.278Z,12.25
2023-05-31T03:59:45.328Z,7.75
2023-05-31T04:02:02.367Z,9.82
2023-05-31T04:04:20.155Z,8.45
2023-05-31T04:06:37.175Z,6.95
2023-05-31T04:08:54.174Z,9.80
2023-05-31T04:11:11.199Z,7.78
2023-05-31T04:13:28.177Z,7.03
2023-05-31T04:15:46.242Z,8.82
2023-05-31T04:18:03.265Z,8.00
2023-05-31T04:20:22.385Z,10.60
2023-05-31T04:22:39.331Z,11.48
2023-05-31T04:24:56.514Z,9.90
2023-05-31T04:27:13.432Z,8.77
2023-05-31T04:29:30.444Z,9.70
2023-05-31T04:31:52.082Z,8.82
2023-05-31T04:34:09.264Z,7.00
2023-05-31T04:36:26.191Z,8.77
2023-05-31T04:38:43.108Z,12.98
2023-05-31T04:41:00.195Z,9.68
2023-05-31T04:43:17.290Z,9.23
2023-05-31T04:45:34.787Z,9.18
2023-05-31T04:47:52.313Z,12.05
2023-05-31T04:50:09.723Z,11.73
2023-05-31T04:52:26.632Z,9.48
2023-05-31T04:54:43.568Z,10.65
2023-05-31T04:57:00.669Z,6.97
2023-05-31T04:59:17.606Z,11.43
2023-05-31T05:01:34.559Z,9.48
2023-05-31T05:03:52.121Z,12.38
2023-05-31T05:06:09.068Z,7.90
2023-05-31T05:08:25.987Z,8.70
2023-05-31T05:10:43.414Z,10.45
2023-05-31T05:13:00.353Z,9.45
2023-05-31T05:15:17.649Z,8.07
2023-05-31T05:17:35.076Z,8.15
2023-05-31T05:19:52.015Z,11.27
2023-05-31T05:22:08.897Z,10.60
2023-05-31T05:24:25.835Z,8.43
2023-05-31T05:26:42.819Z,8.52
2023-05-31T05:28:59.770Z,10.15
2023-05-31T05:31:17.218Z,8.65
2023-05-31T05:33:34.380Z,11.65
2023-05-31T05:35:51.740Z,8.25
2023-05-31T05:38:09.086Z,9.85
2023-05-31T05:40:26.021Z,9.10
2023-05-31T05:42:44.446Z,11.07
2023-05-31T05:45:01.867Z,10.57
2023-05-31T05:47:18.804Z,11.38
2023-05-31T05:49:35.743Z,9.18
2023-05-31T05:51:52.675Z,9.98
2023-05-31T05:54:10.050Z,8.73
2023-05-31T05:56:26.982Z,12.68
2023-05-31T05:58:43.857Z,8.63
2023-05-31T06:01:01.044Z,10.85
2023-05-31T06:03:18.259Z,8.20
2023-05-31T06:05:35.686Z,9.75
2023-05-31T06:07:52.632Z,8.88
2023-05-31T06:10:09.606Z,11.93
2023-05-31T06:12:26.509Z,10.27
2023-05-31T06:14:43.429Z,8.40
2023-05-31T06:17:00.411Z,9.30
2023-05-31T06:19:17.462Z,12.77
2023-05-31T06:21:34.371Z,7.13
2023-05-31T06:23:51.266Z,10.27
2023-05-31T06:26:08.148Z,9.70
2023-05-31T06:28:25.079Z,10.13
2023-05-31T06:30:41.996Z,15.40
2023-05-31T06:32:58.981Z,12.70
2023-05-31T06:35:15.910Z,12.05
2023-05-31T06:37:32.805Z,11.02
2023-05-31T06:39:49.710Z,10.50
2023-05-31T06:42:07.009Z,6.63
2023-05-31T06:44:23.907Z,8.63
2023-05-31T06:46:40.855Z,8.00
2023-05-31T06:49:08.269Z,7.97
2023-05-31T06:51:28.419Z,5.55
2023-05-31T06:53:45.309Z,9.45
2023-05-31T06:56:02.224Z,7.60
2023-05-31T06:58:19.177Z,6.25
2023-05-31T07:00:36.075Z,8.68
2023-05-31T07:02:52.978Z,8.80
2023-05-31T07:05:09.912Z,8.20
2023-05-31T07:07:26.830Z,11.45
2023-05-31T07:09:43.753Z,7.13
2023-05-31T07:12:00.705Z,8.43
2023-05-31T07:14:17.635Z,7.32
2023-05-31T07:16:35.094Z,6.35
2023-05-31T07:18:52.054Z,5.97
2023-05-31T07:21:08.954Z,6.10
2023-05-31T07:23:25.870Z,6.97
2023-05-31T07:25:44.348Z,5.05
2023-05-31T07:28:01.997Z,6.65
2023-05-31T07:30:18.935Z,9.23
2023-05-31T07:32:36.416Z,7.47
2023-05-31T07:35:02.419Z,6.80
2023-05-31T07:37:21.561Z,6.00
2023-05-31T07:39:38.428Z,4.45
2023-05-31T07:41:55.370Z,5.13
2023-05-31T07:44:12.312Z,4.15
2023-05-31T07:46:29.230Z,12.52
2023-05-31T07:48:46.185Z,7.45
2023-05-31T07:51:03.201Z,8.57
2023-05-31T07:53:20.107Z,7.88
2023-05-31T07:55:37.543Z,5.25
2023-05-31T07:57:54.493Z,9.98
2023-05-31T08:00:11.441Z,5.95
2023-05-31T08:02:28.437Z,4.90
2023-05-31T08:04:45.401Z,9.73
2023-05-31T08:07:02.270Z,5.70
2023-05-31T08:09:20.651Z,5.85
2023-05-31T08:11:37.592Z,7.13
2023-05-31T08:13:54.518Z,7.00
2023-05-31T08:16:11.451Z,3.97
2023-05-31T08:18:28.399Z,5.72
2023-05-31T08:20:45.370Z,4.43
2023-05-31T08:23:02.303Z,6.95
2023-05-31T08:25:19.192Z,8.65
2023-05-31T08:27:36.083Z,8.15
2023-05-31T08:29:53.004Z,7.72
2023-05-31T08:32:09.916Z,7.72
2023-05-31T08:34:27.178Z,9.80
2023-05-31T08:36:44.103Z,7.53
2023-05-31T08:39:01.477Z,6.63
2023-05-31T08:41:18.384Z,6.55
2023-05-31T08:43:35.792Z,6.53
2023-05-31T08:45:52.681Z,7.97
2023-05-31T08:48:09.915Z,8.60
2023-05-31T08:50:26.893Z,4.55
2023-05-31T08:52:43.841Z,8.55
2023-05-31T08:55:01.327Z,5.60
2023-05-31T08:57:18.264Z,6.53
2023-05-31T08:59:35.149Z,6.43
2023-05-31T09:01:52.105Z,5.43
2023-05-31T09:04:09.452Z,8.60
2023-05-31T09:06:26.341Z,4.03
2023-05-31T09:08:43.279Z,6.55
2023-05-31T09:11:00.510Z,5.45
2023-05-31T09:13:17.747Z,4.43
2023-05-31T09:15:34.779Z,5.93
2023-05-31T09:17:51.857Z,4.00
2023-05-31T09:20:08.856Z,9.95
2023-05-31T09:22:25.828Z,7.50
2023-05-31T09:24:42.709Z,4.95
2023-05-31T09:26:59.577Z,6.30
2023-05-31T09:29:16.458Z,7.45
2023-05-31T09:31:33.422Z,9.75
2023-05-31T09:33:50.372Z,5.50
2023-05-31T09:36:07.284Z,7.75
2023-05-31T09:38:25.290Z,8.48
2023-05-31T09:40:43.138Z,5.70
2023-05-31T09:43:00.030Z,5.35
2023-05-31T09:45:17.410Z,4.22
2023-05-31T09:47:34.340Z,4.97
2023-05-31T09:49:51.296Z,7.28
2023-05-31T09:52:08.706Z,6.88
2023-05-31T09:54:27.717Z,7.00
2023-05-31T09:56:45.505Z,5.10
2023-05-31T09:59:02.410Z,4.20
2023-05-31T10:01:19.361Z,6.55
2023-05-31T10:03:36.817Z,6.18
2023-05-31T10:05:53.792Z,6.78
2023-05-31T10:08:10.763Z,3.33
2023-05-31T10:10:28.191Z,4.93
2023-05-31T10:12:45.097Z,7.70
2023-05-31T10:15:01.990Z,5.85
2023-05-31T10:17:18.928Z,6.65
2023-05-31T10:19:35.924Z,5.68
2023-05-31T10:21:52.829Z,5.57
2023-05-31T10:24:09.745Z,5.72
2023-05-31T10:26:26.681Z,7.40
2023-05-31T10:28:43.578Z,6.45
2023-05-31T10:31:00.697Z,6.97
2023-05-31T10:33:17.813Z,5.75
2023-05-31T10:35:34.746Z,3.30
2023-05-31T10:37:51.663Z,4.45
2023-05-31T10:40:08.569Z,6.32
2023-05-31T10:42:25.476Z,4.60
2023-05-31T10:44:42.378Z,4.25
2023-05-31T10:46:59.364Z,7.25
2023-05-31T10:49:16.288Z,8.07
2023-05-31T10:51:33.360Z,5.68
2023-05-31T10:53:50.291Z,5.90
2023-05-31T10:56:07.688Z,8.77
2023-05-31T10:58:24.599Z,7.38
2023-05-31T11:00:41.593Z,6.88
2023-05-31T11:02:58.629Z,6.30
2023-05-31T11:05:15.585Z,8.20
2023-05-31T11:07:32.499Z,5.88
2023-05-31T11:09:49.431Z,6.32
2023-05-31T11:12:06.846Z,10.13
2023-05-31T11:14:23.758Z,4.35
2023-05-31T11:16:40.693Z,4.32
2023-05-31T11:18:57.630Z,5.28
2023-05-31T11:21:15.045Z,6.70
2023-05-31T11:23:32.124Z,6.65
2023-05-31T11:25:49.102Z,6.15
2023-05-31T11:28:06.028Z,9.43
2023-05-31T11:30:22.978Z,6.05
2023-05-31T11:32:39.917Z,6.43
2023-05-31T11:34:56.861Z,8.80
2023-05-31T11:37:13.742Z,6.03
2023-05-31T11:39:30.653Z,6.50
2023-05-31T11:41:47.578Z,4.93
2023-05-31T11:44:04.514Z,5.90
2023-05-31T11:46:21.428Z,5.07
2023-05-31T11:48:38.436Z,8.43
2023-05-31T11:50:55.481Z,7.00
2023-05-31T11:53:12.365Z,7.45
2023-05-31T11:55:29.753Z,5.00
2023-05-31T11:57:47.174Z,8.63
2023-05-31T12:00:04.123Z,4.88
2023-05-31T12:02:21.569Z,5.18
2023-05-31T12:04:38.559Z,4.97
2023-05-31T12:06:56.106Z,9.13
2023-05-31T12:09:13.087Z,5.63
2023-05-31T12:11:29.963Z,7.55
2023-05-31T12:13:46.845Z,5.35
2023-05-31T12:16:04.027Z,5.45
2023-05-31T12:18:21.010Z,8.80
2023-05-31T12:20:37.993Z,5.53
2023-05-31T12:22:54.940Z,5.78
2023-05-31T12:25:12.392Z,4.47
2023-05-31T12:27:41.053Z,5.93
2023-05-31T12:30:01.977Z,3.60
2023-05-31T12:32:18.916Z,4.75
2023-05-31T12:34:35.858Z,6.00
2023-05-31T12:36:52.754Z,6.53
2023-05-31T12:39:09.666Z,4.78
2023-05-31T12:41:26.554Z,4.40
2023-05-31T12:43:43.493Z,4.88
2023-05-31T12:46:00.452Z,6.30
2023-05-31T12:48:17.454Z,6.07
2023-05-31T12:50:34.487Z,10.57
2023-05-31T12:52:51.899Z,4.47
2023-05-31T12:55:08.811Z,4.57
2023-05-31T12:57:25.737Z,3.53
2023-05-31T12:59:42.661Z,4.68
2023-05-31T13:02:00.259Z,7.35
2023-05-31T13:04:17.768Z,7.28
2023-05-31T13:06:34.683Z,6.15
2023-05-31T13:08:51.606Z,4.40
2023-05-31T13:11:08.522Z,3.72
2023-05-31T13:13:25.409Z,4.45
2023-05-31T13:15:42.318Z,6.97
2023-05-31T13:17:59.716Z,6.30
2023-05-31T13:20:16.840Z,4.78
2023-05-31T13:22:33.773Z,4.20
2023-05-31T13:24:50.666Z,4.53
2023-05-31T13:27:07.582Z,5.20
2023-05-31T13:29:24.522Z,5.82
2023-05-31T13:31:41.498Z,4.60
2023-05-31T13:33:58.939Z,5.57
2023-05-31T13:36:15.880Z,4.22
2023-05-31T13:38:32.810Z,4.47
2023-05-31T13:40:50.051Z,5.22
2023-05-31T13:43:06.942Z,3.42
2023-05-31T13:45:23.855Z,5.55
2023-05-31T13:47:40.849Z,5.03
2023-05-31T13:49:57.803Z,2.97
2023-05-31T13:52:14.965Z,4.18
2023-05-31T13:54:32.151Z,5.85
2023-05-31T13:56:49.489Z,8.00
2023-05-31T13:59:06.395Z,5.50
2023-05-31T14:01:23.339Z,4.88
2023-05-31T14:03:40.404Z,4.47
2023-05-31T14:05:57.429Z,3.97
2023-05-31T14:08:14.503Z,5.25
2023-05-31T14:10:31.441Z,3.00
2023-05-31T14:12:48.413Z,7.53
2023-05-31T14:15:05.384Z,2.88
2023-05-31T14:17:22.301Z,6.95
2023-05-31T14:19:39.233Z,6.18
2023-05-31T14:21:56.648Z,2.33
2023-05-31T14:24:15.178Z,4.68
2023-05-31T14:26:33.522Z,3.58
2023-05-31T14:28:50.462Z,5.40
2023-05-31T14:31:07.428Z,6.13
2023-05-31T14:33:24.374Z,5.63
2023-05-31T14:35:41.674Z,3.50
2023-05-31T14:38:15.779Z,3.60
2023-05-31T14:40:35.797Z,4.03
2023-05-31T14:42:52.801Z,5.88
2023-05-31T14:45:09.754Z,4.65
2023-05-31T14:47:26.637Z,4.40
2023-05-31T14:49:44.005Z,4.35
2023-05-31T14:52:00.918Z,5.28
2023-05-31T14:54:17.820Z,5.03
2023-05-31T14:56:34.725Z,6.57
2023-05-31T14:58:51.578Z,3.38
2023-05-31T15:01:08.546Z,6.22
2023-05-31T15:03:25.545Z,5.93
2023-05-31T15:05:42.469Z,3.83
2023-05-31T15:07:59.370Z,2.97
2023-05-31T15:10:16.283Z,3.10
2023-05-31T15:12:33.206Z,6.95
2023-05-31T15:14:50.107Z,6.03
2023-05-31T15:17:07.005Z,3.20
2023-05-31T15:19:23.941Z,6.05
2023-05-31T15:21:40.887Z,4.50
2023-05-31T15:23:57.845Z,4.78
2023-05-31T15:26:14.767Z,3.50
2023-05-31T15:28:31.776Z,5.13
2023-05-31T15:30:48.675Z,3.42
2023-05-31T15:33:05.638Z,4.55
2023-05-31T15:35:22.579Z,5.32
2023-05-31T15:37:39.494Z,8.38
2023-05-31T15:39:56.387Z,4.82
2023-05-31T15:42:13.307Z,5.00
2023-05-31T15:44:30.237Z,3.85
2023-05-31T15:46:47.224Z,4.47
2023-05-31T15:49:04.230Z,4.00
2023-05-31T15:51:21.123Z,4.57
2023-05-31T15:53:38.476Z,5.57
2023-05-31T15:55:55.422Z,2.92
2023-05-31T15:58:12.333Z,6.20
2023-05-31T16:00:29.261Z,3.95
2023-05-31T16:02:46.264Z,3.08
2023-05-31T16:05:03.244Z,6.75
2023-05-31T16:07:20.595Z,4.40
2023-05-31T16:09:37.522Z,4.10
2023-05-31T16:11:54.437Z,5.25
2023-05-31T16:14:11.397Z,10.38
2023-05-31T16:16:28.332Z,5.05
2023-05-31T16:18:45.745Z,3.47
2023-05-31T16:21:02.834Z,5.53
2023-05-31T16:23:19.929Z,4.30
2023-05-31T16:25:37.354Z,6.53
2023-05-31T16:27:54.269Z,4.28
2023-05-31T16:30:11.163Z,4.90
2023-05-31T16:32:28.139Z,7.50
2023-05-31T16:34:45.491Z,4.10
2023-05-31T16:37:02.383Z,5.75
2023-05-31T16:39:19.304Z,3.15
2023-05-31T16:41:36.308Z,5.03
2023-05-31T16:43:53.247Z,4.18
2023-05-31T16:46:10.201Z,3.55
2023-05-31T16:48:27.098Z,6.47
2023-05-31T16:50:44.590Z,3.80
2023-05-31T16:53:01.449Z,3.75
2023-05-31T16:55:18.765Z,2.58
2023-05-31T16:57:35.694Z,6.45
2023-05-31T16:59:52.696Z,6.60
2023-05-31T17:02:09.750Z,3.78
2023-05-31T17:04:26.785Z,5.97
2023-05-31T17:06:43.728Z,5.22
2023-05-31T17:09:00.817Z,6.00
2023-05-31T17:11:17.753Z,3.13
2023-05-31T17:13:34.692Z,6.53
2023-05-31T17:15:51.571Z,6.20
2023-05-31T17:18:09.044Z,4.85
2023-05-31T17:20:26.001Z,5.47
2023-05-31T17:22:42.887Z,4.78
2023-05-31T17:24:59.813Z,5.25
2023-05-31T17:27:16.734Z,4.60
2023-05-31T17:29:33.634Z,3.83
2023-05-31T17:31:50.601Z,5.57
2023-05-31T17:34:07.588Z,6.78
2023-05-31T17:36:25.087Z,5.63
2023-05-31T17:38:41.975Z,8.05
2023-05-31T17:40:58.913Z,4.57
2023-05-31T17:43:15.858Z,5.68
2023-05-31T17:45:33.259Z,9.93
2023-05-31T17:47:50.197Z,3.38
2023-05-31T17:50:07.095Z,2.83
2023-05-31T17:52:24.439Z,5.25
2023-05-31T17:54:41.377Z,6.50
2023-05-31T17:56:58.304Z,5.18
2023-05-31T17:59:15.208Z,7.53
2023-05-31T18:01:33.423Z,3.33
2023-05-31T18:03:50.442Z,5.13
2023-05-31T18:06:07.357Z,3.30
2023-05-31T18:08:24.258Z,4.60
2023-05-31T18:10:41.149Z,4.38
2023-05-31T18:12:58.061Z,3.53
2023-05-31T18:15:14.941Z,4.88
2023-05-31T18:17:31.867Z,3.78
2023-05-31T18:19:48.818Z,3.75
2023-05-31T18:22:05.826Z,5.90
2023-05-31T18:24:22.776Z,4.80
2023-05-31T18:26:39.716Z,5.05
2023-05-31T18:28:56.608Z,4.05
2023-05-31T18:31:13.617Z,2.72
2023-05-31T18:33:30.584Z,6.22
2023-05-31T18:35:47.663Z,5.57
2023-05-31T18:38:05.040Z,5.75
2023-05-31T18:40:22.005Z,3.95
2023-05-31T18:42:39.459Z,5.20
2023-05-31T18:44:56.397Z,5.43
2023-05-31T18:47:13.457Z,6.53
2023-05-31T18:49:30.473Z,4.63
2023-05-31T18:51:47.350Z,4.68
2023-05-31T18:54:04.243Z,7.05
2023-05-31T18:56:21.134Z,5.18
2023-05-31T18:58:38.092Z,5.15
2023-05-31T19:00:55.066Z,5.57
2023-05-31T19:03:12.177Z,6.57
2023-05-31T19:05:29.228Z,4.90
2023-05-31T19:07:46.164Z,3.67
2023-05-31T19:10:03.547Z,5.30
2023-05-31T19:12:30.787Z,2.97
2023-05-31T19:14:48.861Z,7.20
2023-05-31T19:17:05.981Z,3.53
2023-05-31T19:19:23.037Z,5.50
2023-05-31T19:21:39.976Z,4.28
2023-05-31T19:23:56.900Z,4.60
2023-05-31T19:26:13.779Z,4.50
2023-05-31T19:28:30.656Z,3.03
2023-05-31T19:30:47.519Z,4.63
2023-05-31T19:33:04.508Z,5.75
2023-05-31T19:35:21.524Z,4.75
2023-05-31T19:37:38.414Z,5.30
2023-05-31T19:39:55.689Z,5.18
2023-05-31T19:42:12.653Z,4.13
2023-05-31T19:44:29.626Z,7.00
2023-05-31T19:46:46.618Z,4.63
2023-05-31T19:49:03.616Z,5.72
2023-05-31T19:51:20.553Z,6.22
2023-05-31T19:53:37.525Z,3.33
2023-05-31T19:55:54.450Z,4.72
2023-05-31T19:58:11.377Z,5.72
2023-05-31T20:00:28.271Z,6.07
2023-05-31T20:02:45.350Z,4.18
2023-05-31T20:05:02.385Z,3.45
2023-05-31T20:07:19.312Z,3.95
2023-05-31T20:09:36.224Z,3.55
2023-05-31T20:11:53.179Z,4.82
2023-05-31T20:14:10.259Z,4.60
2023-05-31T20:16:27.220Z,4.80
2023-05-31T20:18:44.161Z,6.13
2023-05-31T20:21:01.085Z,5.72
2023-05-31T20:23:17.970Z,3.53
2023-05-31T20:25:34.889Z,3.65
2023-05-31T20:27:51.797Z,5.72
2023-05-31T20:30:08.727Z,4.80
2023-05-31T20:32:25.670Z,5.55
2023-05-31T20:34:42.586Z,6.32
2023-05-31T20:36:59.482Z,6.15
2023-05-31T20:39:16.422Z,4.50
2023-05-31T20:41:33.324Z,7.57
2023-05-31T20:43:50.225Z,3.95
2023-05-31T20:46:07.463Z,3.15
2023-05-31T20:48:24.621Z,3.97
2023-05-31T20:50:41.491Z,4.82
2023-05-31T20:52:58.879Z,4.95
2023-05-31T20:55:16.792Z,4.57
2023-05-31T20:57:35.452Z,7.65
2023-05-31T20:59:55.404Z,5.65
2023-05-31T21:02:12.953Z,4.05
2023-05-31T21:04:30.444Z,4.55
2023-05-31T21:06:47.975Z,3.70
2023-05-31T21:09:05.297Z,7.57
2023-05-31T21:11:22.741Z,5.28
2023-05-31T21:13:40.598Z,4.10
2023-05-31T21:15:58.736Z,4.53
2023-05-31T21:18:16.479Z,4.65
2023-05-31T21:20:33.455Z,3.72
2023-05-31T21:22:50.390Z,2.83
2023-05-31T21:25:07.322Z,4.80
2023-05-31T21:27:24.205Z,4.35
2023-05-31T21:29:41.616Z,4.70
2023-05-31T21:31:58.685Z,4.05
2023-05-31T21:34:15.646Z,4.55
2023-05-31T21:36:32.558Z,5.03
2023-05-31T21:38:49.971Z,4.35
2023-05-31T21:41:08.289Z,5.35
2023-05-31T21:43:25.951Z,4.07
2023-05-31T21:45:42.851Z,5.90
2023-05-31T21:47:59.825Z,4.38
2023-05-31T21:50:16.732Z,4.13
2023-05-31T21:52:33.763Z,3.65
2023-05-31T21:54:50.703Z,3.67
2023-05-31T21:57:08.153Z,4.55
2023-05-31T21:59:25.046Z,6.20
2023-05-31T22:01:42.064Z,3.15
2023-05-31T22:03:59.032Z,4.78
2023-05-31T22:06:15.952Z,4.47
2023-05-31T22:08:32.901Z,5.03
2023-05-31T22:10:49.847Z,2.50
2023-05-31T22:13:06.747Z,4.82
2023-05-31T22:15:23.646Z,3.65
2023-05-31T22:17:41.161Z,4.55
2023-05-31T22:19:58.187Z,4.47
2023-05-31T22:22:15.099Z,4.05
2023-05-31T22:24:32.026Z,5.88
2023-05-31T22:26:49.003Z,4.05
2023-05-31T22:29:05.931Z,5.85
2023-05-31T22:31:23.249Z,4.28
2023-05-31T22:33:40.208Z,6.82
2023-05-31T22:35:57.103Z,6.10
2023-05-31T22:38:14.034Z,6.22
2023-05-31T22:40:30.939Z,6.35
2023-05-31T22:42:47.834Z,3.60
2023-05-31T22:45:04.730Z,4.88
2023-05-31T22:47:21.624Z,3.88
2023-05-31T22:49:38.496Z,4.43
2023-05-31T22:51:55.355Z,5.07
2023-05-31T22:54:12.763Z,4.43
2023-05-31T22:56:29.730Z,4.47
2023-05-31T22:58:46.616Z,5.68
2023-05-31T23:01:03.981Z,6.80
2023-05-31T23:03:20.959Z,4.05
2023-05-31T23:05:38.340Z,5.30
2023-05-31T23:07:55.320Z,3.45
2023-05-31T23:10:12.717Z,6.78
2023-05-31T23:12:29.646Z,5.45
2023-05-31T23:14:46.551Z,4.82
2023-05-31T23:17:03.915Z,4.40
2023-05-31T23:19:20.836Z,3.58
2023-05-31T23:21:38.290Z,6.30
2023-05-31T23:23:55.271Z,7.07
2023-05-31T23:26:12.152Z,4.25
2023-05-31T23:28:29.036Z,6.07
2023-05-31T23:30:45.920Z,4.55
2023-05-31T23:33:02.946Z,5.32
2023-05-31T23:35:19.947Z,5.97
2023-05-31T23:37:37.380Z,7.43
2023-05-31T23:39:54.332Z,6.15
2023-05-31T23:42:11.309Z,6.20
2023-05-31T23:44:28.190Z,5.63
2023-05-31T23:46:45.126Z,6.57
2023-05-31T23:49:04.103Z,4.10
2023-05-31T23:51:21.521Z,5.25
2023-05-31T23:53:38.478Z,7.32
2023-05-31T23:55:55.414Z,5.38
2023-05-31T23:58:12.344Z,4.03
